sensor_id;sensor_type;location;lat;lon;timestamp;P1;durP1;ratioP1;P2;durP2;ratioP2
85381;SDS011;75790;40.308;44.272;2024-02-14T00:02:11;18.75;;;8.07;;
85381;SDS011;75790;40.308;44.272;2024-02-14T00:04:37;16.77;;;6.97;;
85381;SDS011;75790;40.308;44.272;2024-02-14T00:07:04;18.05;;;7.15;;
85381;SDS011;75790;40.308;44.272;2024-02-14T00:09:30;20.17;;;8.02;;
85381;SDS011;75790;40.308;44.272;2024-02-14T00:11:56;15.93;;;7.30;;
85381;SDS011;75790;40.308;44.272;2024-02-14T00:14:22;17.65;;;6.82;;
85381;SDS011;75790;40.308;44.272;2024-02-14T00:16:48;18.73;;;7.43;;
85381;SDS011;75790;40.308;44.272;2024-02-14T00:19:14;13.07;;;7.07;;
85381;SDS011;75790;40.308;44.272;2024-02-14T00:21:40;15.70;;;6.28;;
85381;SDS011;75790;40.308;44.272;2024-02-14T00:24:06;15.70;;;7.10;;
85381;SDS011;75790;40.308;44.272;2024-02-14T00:26:32;18.30;;;7.85;;
85381;SDS011;75790;40.308;44.272;2024-02-14T00:28:58;15.15;;;6.78;;
85381;SDS011;75790;40.308;44.272;2024-02-14T00:31:24;15.63;;;6.97;;
85381;SDS011;75790;40.308;44.272;2024-02-14T00:33:50;21.05;;;7.72;;
85381;SDS011;75790;40.308;44.272;2024-02-14T00:36:16;14.07;;;6.47;;
85381;SDS011;75790;40.308;44.272;2024-02-14T00:38:43;18.05;;;7.53;;
85381;SDS011;75790;40.308;44.272;2024-02-14T00:41:10;17.92;;;7.07;;
85381;SDS011;75790;40.308;44.272;2024-02-14T00:43:36;19.90;;;8.10;;
85381;SDS011;75790;40.308;44.272;2024-02-14T00:46:02;20.90;;;7.55;;
85381;SDS011;75790;40.308;44.272;2024-02-14T00:48:28;16.23;;;6.85;;
85381;SDS011;75790;40.308;44.272;2024-02-14T00:50:54;18.38;;;7.35;;
85381;SDS011;75790;40.308;44.272;2024-02-14T00:53:20;16.92;;;7.13;;
85381;SDS011;75790;40.308;44.272;2024-02-14T00:55:46;20.65;;;8.05;;
85381;SDS011;75790;40.308;44.272;2024-02-14T00:58:12;22.85;;;8.73;;
85381;SDS011;75790;40.308;44.272;2024-02-14T01:00:37;19.23;;;8.25;;
85381;SDS011;75790;40.308;44.272;2024-02-14T01:03:03;24.08;;;9.02;;
85381;SDS011;75790;40.308;44.272;2024-02-14T01:05:29;20.48;;;9.48;;
85381;SDS011;75790;40.308;44.272;2024-02-14T01:07:55;20.65;;;8.70;;
85381;SDS011;75790;40.308;44.272;2024-02-14T01:10:21;18.30;;;9.10;;
85381;SDS011;75790;40.308;44.272;2024-02-14T01:12:47;23.05;;;9.85;;
85381;SDS011;75790;40.308;44.272;2024-02-14T01:15:13;24.15;;;10.20;;
85381;SDS011;75790;40.308;44.272;2024-02-14T01:17:39;23.55;;;9.48;;
85381;SDS011;75790;40.308;44.272;2024-02-14T01:20:05;25.50;;;10.15;;
85381;SDS011;75790;40.308;44.272;2024-02-14T01:22:34;26.85;;;9.80;;
85381;SDS011;75790;40.308;44.272;2024-02-14T01:25:01;27.00;;;10.32;;
85381;SDS011;75790;40.308;44.272;2024-02-14T01:27:28;21.58;;;10.00;;
85381;SDS011;75790;40.308;44.272;2024-02-14T01:29:54;25.67;;;10.73;;
85381;SDS011;75790;40.308;44.272;2024-02-14T01:32:20;27.40;;;11.82;;
85381;SDS011;75790;40.308;44.272;2024-02-14T01:34:46;28.15;;;11.43;;
85381;SDS011;75790;40.308;44.272;2024-02-14T01:37:12;23.92;;;10.35;;
85381;SDS011;75790;40.308;44.272;2024-02-14T01:39:38;26.80;;;11.25;;
85381;SDS011;75790;40.308;44.272;2024-02-14T01:42:03;22.17;;;9.95;;
85381;SDS011;75790;40.308;44.272;2024-02-14T01:44:32;25.23;;;10.55;;
85381;SDS011;75790;40.308;44.272;2024-02-14T01:46:58;24.17;;;10.80;;
85381;SDS011;75790;40.308;44.272;2024-02-14T01:49:25;23.50;;;10.30;;
85381;SDS011;75790;40.308;44.272;2024-02-14T01:51:55;22.20;;;9.77;;
85381;SDS011;75790;40.308;44.272;2024-02-14T01:54:23;23.38;;;10.18;;
85381;SDS011;75790;40.308;44.272;2024-02-14T01:56:50;22.35;;;9.32;;
85381;SDS011;75790;40.308;44.272;2024-02-14T01:59:15;23.45;;;9.93;;
85381;SDS011;75790;40.308;44.272;2024-02-14T02:01:43;23.05;;;9.88;;
85381;SDS011;75790;40.308;44.272;2024-02-14T02:04:09;23.15;;;10.75;;
85381;SDS011;75790;40.308;44.272;2024-02-14T02:06:35;23.88;;;9.38;;
85381;SDS011;75790;40.308;44.272;2024-02-14T02:09:02;27.13;;;11.90;;
85381;SDS011;75790;40.308;44.272;2024-02-14T02:11:28;29.48;;;11.32;;
85381;SDS011;75790;40.308;44.272;2024-02-14T02:13:54;26.27;;;11.18;;
85381;SDS011;75790;40.308;44.272;2024-02-14T02:16:20;29.33;;;11.13;;
85381;SDS011;75790;40.308;44.272;2024-02-14T02:18:47;28.67;;;11.43;;
85381;SDS011;75790;40.308;44.272;2024-02-14T02:21:14;25.25;;;11.15;;
85381;SDS011;75790;40.308;44.272;2024-02-14T02:23:40;20.00;;;8.95;;
85381;SDS011;75790;40.308;44.272;2024-02-14T02:26:10;25.00;;;9.90;;
85381;SDS011;75790;40.308;44.272;2024-02-14T02:28:36;20.25;;;9.88;;
85381;SDS011;75790;40.308;44.272;2024-02-14T02:31:05;24.20;;;9.32;;
85381;SDS011;75790;40.308;44.272;2024-02-14T02:33:31;20.60;;;9.65;;
85381;SDS011;75790;40.308;44.272;2024-02-14T02:35:57;22.50;;;9.25;;
85381;SDS011;75790;40.308;44.272;2024-02-14T02:38:23;21.98;;;9.25;;
85381;SDS011;75790;40.308;44.272;2024-02-14T02:40:49;20.63;;;9.57;;
85381;SDS011;75790;40.308;44.272;2024-02-14T02:43:14;22.75;;;9.32;;
85381;SDS011;75790;40.308;44.272;2024-02-14T02:45:40;25.17;;;9.40;;
85381;SDS011;75790;40.308;44.272;2024-02-14T02:48:07;20.88;;;9.77;;
85381;SDS011;75790;40.308;44.272;2024-02-14T02:50:33;27.08;;;10.75;;
85381;SDS011;75790;40.308;44.272;2024-02-14T02:52:59;29.42;;;10.55;;
85381;SDS011;75790;40.308;44.272;2024-02-14T02:55:25;25.38;;;10.75;;
85381;SDS011;75790;40.308;44.272;2024-02-14T02:57:51;24.25;;;9.85;;
85381;SDS011;75790;40.308;44.272;2024-02-14T03:00:18;26.65;;;9.90;;
85381;SDS011;75790;40.308;44.272;2024-02-14T03:02:46;25.95;;;11.57;;
85381;SDS011;75790;40.308;44.272;2024-02-14T03:05:12;24.20;;;9.98;;
85381;SDS011;75790;40.308;44.272;2024-02-14T03:07:45;23.05;;;9.60;;
85381;SDS011;75790;40.308;44.272;2024-02-14T03:10:11;22.73;;;10.18;;
85381;SDS011;75790;40.308;44.272;2024-02-14T03:12:44;23.67;;;9.27;;
85381;SDS011;75790;40.308;44.272;2024-02-14T03:15:12;24.55;;;9.43;;
85381;SDS011;75790;40.308;44.272;2024-02-14T03:17:38;21.45;;;9.32;;
85381;SDS011;75790;40.308;44.272;2024-02-14T03:20:05;25.23;;;10.35;;
85381;SDS011;75790;40.308;44.272;2024-02-14T03:22:42;19.23;;;8.68;;
85381;SDS011;75790;40.308;44.272;2024-02-14T03:25:12;20.08;;;9.98;;
85381;SDS011;75790;40.308;44.272;2024-02-14T03:27:41;30.60;;;11.57;;
85381;SDS011;75790;40.308;44.272;2024-02-14T03:30:08;29.10;;;11.68;;
85381;SDS011;75790;40.308;44.272;2024-02-14T03:32:34;34.03;;;12.80;;
85381;SDS011;75790;40.308;44.272;2024-02-14T03:35:00;26.40;;;11.35;;
85381;SDS011;75790;40.308;44.272;2024-02-14T03:37:26;24.98;;;11.63;;
85381;SDS011;75790;40.308;44.272;2024-02-14T03:39:52;27.92;;;11.07;;
85381;SDS011;75790;40.308;44.272;2024-02-14T03:42:18;21.40;;;10.65;;
85381;SDS011;75790;40.308;44.272;2024-02-14T03:44:45;29.70;;;12.55;;
85381;SDS011;75790;40.308;44.272;2024-02-14T03:47:11;28.70;;;11.50;;
85381;SDS011;75790;40.308;44.272;2024-02-14T03:49:38;30.13;;;12.55;;
85381;SDS011;75790;40.308;44.272;2024-02-14T03:52:06;32.83;;;12.85;;
85381;SDS011;75790;40.308;44.272;2024-02-14T03:54:37;28.17;;;12.25;;
85381;SDS011;75790;40.308;44.272;2024-02-14T03:57:04;27.77;;;12.02;;
85381;SDS011;75790;40.308;44.272;2024-02-14T03:59:35;34.45;;;13.13;;
85381;SDS011;75790;40.308;44.272;2024-02-14T04:02:02;24.40;;;11.18;;
85381;SDS011;75790;40.308;44.272;2024-02-14T04:04:27;22.67;;;10.43;;
85381;SDS011;75790;40.308;44.272;2024-02-14T04:06:54;26.45;;;11.65;;
85381;SDS011;75790;40.308;44.272;2024-02-14T04:09:20;27.83;;;12.05;;
85381;SDS011;75790;40.308;44.272;2024-02-14T04:11:45;26.40;;;11.68;;
85381;SDS011;75790;40.308;44.272;2024-02-14T04:14:13;29.85;;;12.48;;
85381;SDS011;75790;40.308;44.272;2024-02-14T04:16:39;31.05;;;12.95;;
85381;SDS011;75790;40.308;44.272;2024-02-14T04:19:05;28.33;;;12.07;;
85381;SDS011;75790;40.308;44.272;2024-02-14T04:21:31;32.03;;;13.88;;
85381;SDS011;75790;40.308;44.272;2024-02-14T04:23:57;32.78;;;13.13;;
85381;SDS011;75790;40.308;44.272;2024-02-14T04:26:23;33.10;;;14.00;;
85381;SDS011;75790;40.308;44.272;2024-02-14T04:28:49;28.20;;;12.50;;
85381;SDS011;75790;40.308;44.272;2024-02-14T04:31:15;27.20;;;11.77;;
85381;SDS011;75790;40.308;44.272;2024-02-14T04:33:41;33.75;;;13.90;;
85381;SDS011;75790;40.308;44.272;2024-02-14T04:36:07;32.47;;;13.38;;
85381;SDS011;75790;40.308;44.272;2024-02-14T04:38:33;35.72;;;14.13;;
85381;SDS011;75790;40.308;44.272;2024-02-14T04:40:58;31.95;;;13.57;;
85381;SDS011;75790;40.308;44.272;2024-02-14T04:43:25;36.85;;;14.23;;
85381;SDS011;75790;40.308;44.272;2024-02-14T04:45:54;32.70;;;13.32;;
85381;SDS011;75790;40.308;44.272;2024-02-14T04:48:19;33.95;;;15.02;;
85381;SDS011;75790;40.308;44.272;2024-02-14T04:50:45;29.50;;;14.48;;
85381;SDS011;75790;40.308;44.272;2024-02-14T04:53:11;32.90;;;14.80;;
85381;SDS011;75790;40.308;44.272;2024-02-14T04:55:37;32.63;;;14.43;;
85381;SDS011;75790;40.308;44.272;2024-02-14T04:58:02;34.28;;;14.15;;
85381;SDS011;75790;40.308;44.272;2024-02-14T05:00:30;29.67;;;13.70;;
85381;SDS011;75790;40.308;44.272;2024-02-14T05:02:56;32.15;;;13.98;;
85381;SDS011;75790;40.308;44.272;2024-02-14T05:05:22;23.80;;;11.23;;
85381;SDS011;75790;40.308;44.272;2024-02-14T05:07:48;30.88;;;13.95;;
85381;SDS011;75790;40.308;44.272;2024-02-14T05:10:14;32.95;;;15.65;;
85381;SDS011;75790;40.308;44.272;2024-02-14T05:12:40;31.80;;;13.80;;
85381;SDS011;75790;40.308;44.272;2024-02-14T05:15:06;33.67;;;15.60;;
85381;SDS011;75790;40.308;44.272;2024-02-14T05:17:33;32.72;;;14.68;;
85381;SDS011;75790;40.308;44.272;2024-02-14T05:19:59;30.13;;;13.15;;
85381;SDS011;75790;40.308;44.272;2024-02-14T05:22:25;33.45;;;13.75;;
85381;SDS011;75790;40.308;44.272;2024-02-14T05:24:52;33.92;;;14.93;;
85381;SDS011;75790;40.308;44.272;2024-02-14T05:27:18;37.13;;;16.27;;
85381;SDS011;75790;40.308;44.272;2024-02-14T05:29:44;37.88;;;16.30;;
85381;SDS011;75790;40.308;44.272;2024-02-14T05:32:10;32.67;;;14.43;;
85381;SDS011;75790;40.308;44.272;2024-02-14T05:34:36;32.65;;;15.02;;
85381;SDS011;75790;40.308;44.272;2024-02-14T05:37:01;38.40;;;16.15;;
85381;SDS011;75790;40.308;44.272;2024-02-14T05:39:27;35.63;;;16.23;;
85381;SDS011;75790;40.308;44.272;2024-02-14T05:41:53;39.78;;;16.80;;
85381;SDS011;75790;40.308;44.272;2024-02-14T05:44:19;37.08;;;15.68;;
85381;SDS011;75790;40.308;44.272;2024-02-14T05:46:46;39.33;;;17.38;;
85381;SDS011;75790;40.308;44.272;2024-02-14T05:49:13;36.70;;;15.95;;
85381;SDS011;75790;40.308;44.272;2024-02-14T05:51:39;37.85;;;15.25;;
85381;SDS011;75790;40.308;44.272;2024-02-14T05:54:06;43.28;;;17.50;;
85381;SDS011;75790;40.308;44.272;2024-02-14T05:56:31;36.88;;;17.27;;
85381;SDS011;75790;40.308;44.272;2024-02-14T05:58:57;40.25;;;18.75;;
85381;SDS011;75790;40.308;44.272;2024-02-14T06:01:23;37.78;;;16.88;;
85381;SDS011;75790;40.308;44.272;2024-02-14T06:03:49;43.35;;;17.30;;
85381;SDS011;75790;40.308;44.272;2024-02-14T06:06:15;42.35;;;19.05;;
85381;SDS011;75790;40.308;44.272;2024-02-14T06:08:41;47.33;;;20.00;;
85381;SDS011;75790;40.308;44.272;2024-02-14T06:11:06;46.33;;;19.55;;
85381;SDS011;75790;40.308;44.272;2024-02-14T06:13:33;46.67;;;19.80;;
85381;SDS011;75790;40.308;44.272;2024-02-14T06:15:59;51.83;;;20.45;;
85381;SDS011;75790;40.308;44.272;2024-02-14T06:18:25;50.58;;;21.10;;
85381;SDS011;75790;40.308;44.272;2024-02-14T06:20:50;46.72;;;20.42;;
85381;SDS011;75790;40.308;44.272;2024-02-14T06:23:16;54.35;;;20.98;;
85381;SDS011;75790;40.308;44.272;2024-02-14T06:25:42;49.75;;;21.17;;
85381;SDS011;75790;40.308;44.272;2024-02-14T06:28:08;46.95;;;21.48;;
85381;SDS011;75790;40.308;44.272;2024-02-14T06:30:35;51.10;;;21.13;;
85381;SDS011;75790;40.308;44.272;2024-02-14T06:33:01;47.20;;;20.38;;
85381;SDS011;75790;40.308;44.272;2024-02-14T06:35:27;51.30;;;21.65;;
85381;SDS011;75790;40.308;44.272;2024-02-14T06:37:54;55.85;;;21.85;;
85381;SDS011;75790;40.308;44.272;2024-02-14T06:40:21;53.45;;;22.60;;
85381;SDS011;75790;40.308;44.272;2024-02-14T06:42:47;46.20;;;21.60;;
85381;SDS011;75790;40.308;44.272;2024-02-14T06:45:15;55.35;;;24.95;;
85381;SDS011;75790;40.308;44.272;2024-02-14T06:47:42;52.38;;;23.42;;
85381;SDS011;75790;40.308;44.272;2024-02-14T06:50:08;49.30;;;22.17;;
85381;SDS011;75790;40.308;44.272;2024-02-14T06:52:34;48.80;;;23.88;;
85381;SDS011;75790;40.308;44.272;2024-02-14T06:55:00;52.40;;;24.17;;
85381;SDS011;75790;40.308;44.272;2024-02-14T06:57:28;48.85;;;21.90;;
85381;SDS011;75790;40.308;44.272;2024-02-14T06:59:54;51.08;;;22.05;;
85381;SDS011;75790;40.308;44.272;2024-02-14T07:02:20;50.28;;;23.73;;
85381;SDS011;75790;40.308;44.272;2024-02-14T07:04:46;52.45;;;23.42;;
85381;SDS011;75790;40.308;44.272;2024-02-14T07:07:12;49.25;;;24.45;;
85381;SDS011;75790;40.308;44.272;2024-02-14T07:09:38;51.00;;;22.80;;
85381;SDS011;75790;40.308;44.272;2024-02-14T07:12:04;49.67;;;23.70;;
85381;SDS011;75790;40.308;44.272;2024-02-14T07:14:30;52.17;;;25.02;;
85381;SDS011;75790;40.308;44.272;2024-02-14T07:16:56;51.58;;;24.92;;
85381;SDS011;75790;40.308;44.272;2024-02-14T07:19:22;46.00;;;21.27;;
85381;SDS011;75790;40.308;44.272;2024-02-14T07:21:48;51.30;;;23.92;;
85381;SDS011;75790;40.308;44.272;2024-02-14T07:24:13;49.83;;;22.88;;
85381;SDS011;75790;40.308;44.272;2024-02-14T07:26:39;49.67;;;21.88;;
85381;SDS011;75790;40.308;44.272;2024-02-14T07:29:10;46.92;;;22.15;;
85381;SDS011;75790;40.308;44.272;2024-02-14T07:31:36;53.25;;;25.70;;
85381;SDS011;75790;40.308;44.272;2024-02-14T07:34:01;55.08;;;26.08;;
85381;SDS011;75790;40.308;44.272;2024-02-14T07:36:29;49.47;;;24.40;;
85381;SDS011;75790;40.308;44.272;2024-02-14T07:38:55;52.03;;;25.80;;
85381;SDS011;75790;40.308;44.272;2024-02-14T07:41:21;49.58;;;23.48;;
85381;SDS011;75790;40.308;44.272;2024-02-14T07:43:47;53.08;;;25.80;;
85381;SDS011;75790;40.308;44.272;2024-02-14T07:46:19;48.78;;;25.27;;
85381;SDS011;75790;40.308;44.272;2024-02-14T07:48:45;51.65;;;24.92;;
85381;SDS011;75790;40.308;44.272;2024-02-14T07:51:12;50.55;;;23.73;;
85381;SDS011;75790;40.308;44.272;2024-02-14T07:53:37;47.53;;;23.83;;
85381;SDS011;75790;40.308;44.272;2024-02-14T07:56:03;49.55;;;23.25;;
85381;SDS011;75790;40.308;44.272;2024-02-14T07:58:29;50.20;;;25.38;;
85381;SDS011;75790;40.308;44.272;2024-02-14T08:00:55;48.97;;;24.10;;
85381;SDS011;75790;40.308;44.272;2024-02-14T08:03:21;51.08;;;24.42;;
85381;SDS011;75790;40.308;44.272;2024-02-14T08:05:47;45.22;;;23.05;;
85381;SDS011;75790;40.308;44.272;2024-02-14T08:08:12;50.38;;;23.23;;
85381;SDS011;75790;40.308;44.272;2024-02-14T08:10:38;48.67;;;25.05;;
85381;SDS011;75790;40.308;44.272;2024-02-14T08:13:04;54.47;;;24.92;;
85381;SDS011;75790;40.308;44.272;2024-02-14T08:15:30;57.05;;;26.30;;
85381;SDS011;75790;40.308;44.272;2024-02-14T08:17:56;50.55;;;24.88;;
85381;SDS011;75790;40.308;44.272;2024-02-14T08:20:22;48.92;;;25.48;;
85381;SDS011;75790;40.308;44.272;2024-02-14T08:22:49;54.50;;;26.30;;
85381;SDS011;75790;40.308;44.272;2024-02-14T08:25:14;56.30;;;27.95;;
85381;SDS011;75790;40.308;44.272;2024-02-14T08:27:40;54.50;;;25.25;;
85381;SDS011;75790;40.308;44.272;2024-02-14T08:30:06;51.03;;;26.45;;
85381;SDS011;75790;40.308;44.272;2024-02-14T08:32:34;52.47;;;25.73;;
85381;SDS011;75790;40.308;44.272;2024-02-14T08:35:00;51.55;;;25.25;;
85381;SDS011;75790;40.308;44.272;2024-02-14T08:37:26;60.90;;;28.17;;
85381;SDS011;75790;40.308;44.272;2024-02-14T08:39:52;50.50;;;25.10;;
85381;SDS011;75790;40.308;44.272;2024-02-14T08:42:19;54.20;;;26.35;;
85381;SDS011;75790;40.308;44.272;2024-02-14T08:44:46;54.25;;;26.90;;
85381;SDS011;75790;40.308;44.272;2024-02-14T08:47:12;54.65;;;25.98;;
85381;SDS011;75790;40.308;44.272;2024-02-14T08:49:40;56.08;;;25.73;;
85381;SDS011;75790;40.308;44.272;2024-02-14T08:52:07;52.28;;;26.52;;
85381;SDS011;75790;40.308;44.272;2024-02-14T08:54:33;52.53;;;27.23;;
85381;SDS011;75790;40.308;44.272;2024-02-14T08:56:59;58.33;;;27.75;;
85381;SDS011;75790;40.308;44.272;2024-02-14T08:59:25;58.85;;;27.60;;
85381;SDS011;75790;40.308;44.272;2024-02-14T09:01:51;55.95;;;26.10;;
85381;SDS011;75790;40.308;44.272;2024-02-14T09:04:17;52.38;;;24.38;;
85381;SDS011;75790;40.308;44.272;2024-02-14T09:06:43;61.00;;;27.98;;
85381;SDS011;75790;40.308;44.272;2024-02-14T09:09:09;54.15;;;25.73;;
85381;SDS011;75790;40.308;44.272;2024-02-14T09:11:35;53.17;;;24.80;;
85381;SDS011;75790;40.308;44.272;2024-02-14T09:14:01;55.30;;;25.30;;
85381;SDS011;75790;40.308;44.272;2024-02-14T09:16:32;56.95;;;26.38;;
85381;SDS011;75790;40.308;44.272;2024-02-14T09:18:58;56.47;;;25.17;;
85381;SDS011;75790;40.308;44.272;2024-02-14T09:21:26;55.45;;;26.17;;
85381;SDS011;75790;40.308;44.272;2024-02-14T09:23:53;58.80;;;26.02;;
85381;SDS011;75790;40.308;44.272;2024-02-14T09:26:18;52.90;;;26.10;;
85381;SDS011;75790;40.308;44.272;2024-02-14T09:28:44;51.60;;;25.90;;
85381;SDS011;75790;40.308;44.272;2024-02-14T09:31:10;53.42;;;26.13;;
85381;SDS011;75790;40.308;44.272;2024-02-14T09:33:37;53.08;;;24.30;;
85381;SDS011;75790;40.308;44.272;2024-02-14T09:36:03;52.20;;;24.42;;
85381;SDS011;75790;40.308;44.272;2024-02-14T09:38:30;52.75;;;25.65;;
85381;SDS011;75790;40.308;44.272;2024-02-14T09:41:06;51.83;;;25.02;;
85381;SDS011;75790;40.308;44.272;2024-02-14T09:43:45;51.50;;;23.38;;
85381;SDS011;75790;40.308;44.272;2024-02-14T09:46:12;44.80;;;23.15;;
85381;SDS011;75790;40.308;44.272;2024-02-14T09:51:06;52.15;;;23.73;;
85381;SDS011;75790;40.308;44.272;2024-02-14T09:53:32;51.33;;;24.17;;
85381;SDS011;75790;40.308;44.272;2024-02-14T09:55:59;44.88;;;21.40;;
85381;SDS011;75790;40.308;44.272;2024-02-14T09:58:25;50.45;;;23.35;;
85381;SDS011;75790;40.308;44.272;2024-02-14T10:00:51;44.28;;;22.27;;
85381;SDS011;75790;40.308;44.272;2024-02-14T10:03:16;49.45;;;24.02;;
85381;SDS011;75790;40.308;44.272;2024-02-14T10:05:42;45.10;;;22.48;;
85381;SDS011;75790;40.308;44.272;2024-02-14T10:08:08;51.28;;;25.30;;
85381;SDS011;75790;40.308;44.272;2024-02-14T10:10:37;46.80;;;22.58;;
85381;SDS011;75790;40.308;44.272;2024-02-14T10:13:03;45.10;;;21.40;;
85381;SDS011;75790;40.308;44.272;2024-02-14T10:15:31;45.17;;;22.58;;
85381;SDS011;75790;40.308;44.272;2024-02-14T10:17:59;48.50;;;22.77;;
85381;SDS011;75790;40.308;44.272;2024-02-14T10:20:26;52.47;;;21.65;;
85381;SDS011;75790;40.308;44.272;2024-02-14T10:23:00;51.20;;;22.70;;
85381;SDS011;75790;40.308;44.272;2024-02-14T10:25:29;47.75;;;23.45;;
85381;SDS011;75790;40.308;44.272;2024-02-14T10:27:56;48.70;;;21.38;;
85381;SDS011;75790;40.308;44.272;2024-02-14T10:30:22;44.55;;;20.65;;
85381;SDS011;75790;40.308;44.272;2024-02-14T10:32:48;43.50;;;21.80;;
85381;SDS011;75790;40.308;44.272;2024-02-14T10:35:14;49.30;;;22.48;;
85381;SDS011;75790;40.308;44.272;2024-02-14T10:37:41;49.78;;;22.50;;
85381;SDS011;75790;40.308;44.272;2024-02-14T10:40:07;41.65;;;20.52;;
85381;SDS011;75790;40.308;44.272;2024-02-14T10:42:34;46.90;;;22.17;;
85381;SDS011;75790;40.308;44.272;2024-02-14T10:45:00;47.53;;;22.15;;
85381;SDS011;75790;40.308;44.272;2024-02-14T10:47:30;46.55;;;22.50;;
85381;SDS011;75790;40.308;44.272;2024-02-14T10:50:01;51.05;;;22.52;;
85381;SDS011;75790;40.308;44.272;2024-02-14T10:52:32;45.95;;;22.00;;
85381;SDS011;75790;40.308;44.272;2024-02-14T10:55:03;49.78;;;22.42;;
85381;SDS011;75790;40.308;44.272;2024-02-14T10:57:30;43.42;;;22.13;;
85381;SDS011;75790;40.308;44.272;2024-02-14T10:59:58;50.05;;;22.38;;
85381;SDS011;75790;40.308;44.272;2024-02-14T11:02:26;54.25;;;22.67;;
85381;SDS011;75790;40.308;44.272;2024-02-14T11:04:56;49.70;;;22.25;;
85381;SDS011;75790;40.308;44.272;2024-02-14T11:07:22;50.63;;;23.55;;
85381;SDS011;75790;40.308;44.272;2024-02-14T11:09:48;50.45;;;22.23;;
85381;SDS011;75790;40.308;44.272;2024-02-14T11:12:34;51.90;;;22.75;;
85381;SDS011;75790;40.308;44.272;2024-02-14T11:15:08;49.53;;;23.05;;
85381;SDS011;75790;40.308;44.272;2024-02-14T11:17:40;51.88;;;23.27;;
85381;SDS011;75790;40.308;44.272;2024-02-14T11:22:50;50.70;;;23.75;;
85381;SDS011;75790;40.308;44.272;2024-02-14T11:25:23;50.22;;;24.67;;
85381;SDS011;75790;40.308;44.272;2024-02-14T11:27:54;53.03;;;24.30;;
85381;SDS011;75790;40.308;44.272;2024-02-14T11:30:31;50.08;;;22.38;;
85381;SDS011;75790;40.308;44.272;2024-02-14T11:33:13;51.10;;;24.15;;
85381;SDS011;75790;40.308;44.272;2024-02-14T11:35:46;53.00;;;25.20;;
85381;SDS011;75790;40.308;44.272;2024-02-14T11:38:14;48.25;;;24.13;;
85381;SDS011;75790;40.308;44.272;2024-02-14T11:40:40;47.38;;;22.23;;
85381;SDS011;75790;40.308;44.272;2024-02-14T11:43:13;58.85;;;23.85;;
85381;SDS011;75790;40.308;44.272;2024-02-14T11:45:39;55.90;;;25.08;;
85381;SDS011;75790;40.308;44.272;2024-02-14T11:48:16;49.15;;;23.67;;
85381;SDS011;75790;40.308;44.272;2024-02-14T11:50:43;50.60;;;22.88;;
85381;SDS011;75790;40.308;44.272;2024-02-14T11:53:10;58.10;;;25.95;;
85381;SDS011;75790;40.308;44.272;2024-02-14T11:55:39;54.63;;;25.23;;
85381;SDS011;75790;40.308;44.272;2024-02-14T11:58:07;46.30;;;21.75;;
85381;SDS011;75790;40.308;44.272;2024-02-14T12:00:37;53.05;;;26.08;;
85381;SDS011;75790;40.308;44.272;2024-02-14T12:03:06;47.90;;;23.02;;
85381;SDS011;75790;40.308;44.272;2024-02-14T12:05:33;59.08;;;25.55;;
85381;SDS011;75790;40.308;44.272;2024-02-14T12:08:00;50.40;;;23.23;;
85381;SDS011;75790;40.308;44.272;2024-02-14T12:10:26;51.38;;;23.25;;
85381;SDS011;75790;40.308;44.272;2024-02-14T12:12:52;42.30;;;20.48;;
85381;SDS011;75790;40.308;44.272;2024-02-14T12:15:18;48.92;;;23.23;;
85381;SDS011;75790;40.308;44.272;2024-02-14T12:17:44;52.92;;;24.65;;
85381;SDS011;75790;40.308;44.272;2024-02-14T12:20:10;46.30;;;20.73;;
85381;SDS011;75790;40.308;44.272;2024-02-14T12:22:39;47.20;;;21.73;;
85381;SDS011;75790;40.308;44.272;2024-02-14T12:25:06;34.15;;;17.20;;
85381;SDS011;75790;40.308;44.272;2024-02-14T12:27:33;40.45;;;18.10;;
85381;SDS011;75790;40.308;44.272;2024-02-14T12:30:02;31.23;;;15.95;;
85381;SDS011;75790;40.308;44.272;2024-02-14T12:32:29;37.55;;;17.38;;
85381;SDS011;75790;40.308;44.272;2024-02-14T12:34:58;34.40;;;17.30;;
85381;SDS011;75790;40.308;44.272;2024-02-14T12:37:24;34.65;;;16.65;;
85381;SDS011;75790;40.308;44.272;2024-02-14T12:39:50;42.45;;;18.95;;
85381;SDS011;75790;40.308;44.272;2024-02-14T12:42:18;41.40;;;18.67;;
85381;SDS011;75790;40.308;44.272;2024-02-14T12:44:50;39.30;;;17.83;;
85381;SDS011;75790;40.308;44.272;2024-02-14T12:47:22;34.70;;;16.90;;
85381;SDS011;75790;40.308;44.272;2024-02-14T12:49:48;36.45;;;18.77;;
85381;SDS011;75790;40.308;44.272;2024-02-14T12:52:14;35.58;;;17.00;;
85381;SDS011;75790;40.308;44.272;2024-02-14T12:54:41;41.30;;;19.25;;
85381;SDS011;75790;40.308;44.272;2024-02-14T12:57:07;32.92;;;17.02;;
85381;SDS011;75790;40.308;44.272;2024-02-14T12:59:32;39.97;;;19.58;;
85381;SDS011;75790;40.308;44.272;2024-02-14T13:01:58;38.90;;;17.65;;
85381;SDS011;75790;40.308;44.272;2024-02-14T13:04:24;45.45;;;19.48;;
85381;SDS011;75790;40.308;44.272;2024-02-14T13:06:50;43.80;;;19.17;;
85381;SDS011;75790;40.308;44.272;2024-02-14T13:09:16;42.50;;;19.10;;
85381;SDS011;75790;40.308;44.272;2024-02-14T13:11:42;40.60;;;18.45;;
85381;SDS011;75790;40.308;44.272;2024-02-14T13:14:08;40.53;;;19.20;;
85381;SDS011;75790;40.308;44.272;2024-02-14T13:16:34;41.90;;;17.73;;
85381;SDS011;75790;40.308;44.272;2024-02-14T13:19:00;44.85;;;19.48;;
85381;SDS011;75790;40.308;44.272;2024-02-14T13:21:26;49.38;;;20.30;;
85381;SDS011;75790;40.308;44.272;2024-02-14T13:23:52;53.40;;;22.25;;
85381;SDS011;75790;40.308;44.272;2024-02-14T13:26:18;53.85;;;22.70;;
85381;SDS011;75790;40.308;44.272;2024-02-14T13:28:43;41.10;;;17.85;;
85381;SDS011;75790;40.308;44.272;2024-02-14T13:31:09;44.40;;;19.27;;
85381;SDS011;75790;40.308;44.272;2024-02-14T13:33:37;50.13;;;21.83;;
85381;SDS011;75790;40.308;44.272;2024-02-14T13:36:03;45.55;;;21.27;;
85381;SDS011;75790;40.308;44.272;2024-02-14T13:38:29;49.42;;;22.30;;
85381;SDS011;75790;40.308;44.272;2024-02-14T13:40:55;53.88;;;23.63;;
85381;SDS011;75790;40.308;44.272;2024-02-14T13:43:21;53.47;;;23.95;;
85381;SDS011;75790;40.308;44.272;2024-02-14T13:45:47;59.15;;;24.55;;
85381;SDS011;75790;40.308;44.272;2024-02-14T13:48:15;54.03;;;24.73;;
85381;SDS011;75790;40.308;44.272;2024-02-14T13:50:41;62.83;;;25.05;;
85381;SDS011;75790;40.308;44.272;2024-02-14T13:53:08;59.13;;;26.50;;
85381;SDS011;75790;40.308;44.272;2024-02-14T13:55:33;53.00;;;22.75;;
85381;SDS011;75790;40.308;44.272;2024-02-14T13:57:59;55.25;;;24.40;;
85381;SDS011;75790;40.308;44.272;2024-02-14T14:00:25;52.75;;;24.35;;
85381;SDS011;75790;40.308;44.272;2024-02-14T14:02:52;55.30;;;24.50;;
85381;SDS011;75790;40.308;44.272;2024-02-14T14:05:18;61.90;;;25.38;;
85381;SDS011;75790;40.308;44.272;2024-02-14T14:07:47;54.80;;;23.30;;
85381;SDS011;75790;40.308;44.272;2024-02-14T14:10:12;58.40;;;24.40;;
85381;SDS011;75790;40.308;44.272;2024-02-14T14:12:38;50.22;;;25.60;;
85381;SDS011;75790;40.308;44.272;2024-02-14T14:15:04;54.28;;;25.38;;